Terminal Aerodrome Forecast
Issued by NWS Sterling, VA

Current Version | Previous Version | Graphics & Text | Print | Product List | Glossary On
Versions: 1 2 3 4 5 6 7 8 9 10 11 12 13 14 15 16 17 18 19 20 21 22 23 24
000
FTUS41 KLWX 261100
TAFDCA
TAF
KDCA 261137Z 2612/2712 03008KT 3SM RA OVC030
     FM261500 02011KT 2SM RASN OVC015
     FM261800 36011G18KT 2SM -RASN OVC008
     FM262000 34012G20KT 2SM -RASN OVC008
     FM262300 32011KT P6SM OVC008
     FM270400 30006KT P6SM BKN045
     FM271000 00000KT P6SM OVC045=

USA.gov is the U.S. government's official web portal to all federal, state and local government web resources and services.